createdAt,value
2018-04-29T00:00:44.207Z,1005.17
2018-04-29T00:01:44.261Z,1005.19
2018-04-29T00:03:37.291Z,1005.21
2018-04-29T00:04:37.314Z,1005.19
2018-04-29T00:06:30.309Z,1005.16
2018-04-29T00:07:30.367Z,1005.14
2018-04-29T00:09:23.388Z,1005.17
2018-04-29T00:10:23.426Z,1005.16
2018-04-29T00:12:16.420Z,1005.16
2018-04-29T00:13:16.479Z,1005.16
2018-04-29T00:15:09.481Z,1005.14
2018-04-29T00:16:09.540Z,1005.16
2018-04-29T00:18:02.531Z,1005.15
2018-04-29T00:19:02.601Z,1005.15
2018-04-29T00:20:55.591Z,1005.20
2018-04-29T00:21:55.642Z,1005.22
2018-04-29T00:23:48.630Z,1005.23
2018-04-29T00:24:48.690Z,1005.28
2018-04-29T00:26:41.687Z,1005.22
2018-04-29T00:27:41.743Z,1005.23
2018-04-29T00:29:34.750Z,1005.20
2018-04-29T00:30:34.803Z,1005.23
2018-04-29T00:32:27.782Z,1005.18
2018-04-29T00:33:27.841Z,1005.19
2018-04-29T00:35:20.838Z,1005.14
2018-04-29T00:36:20.892Z,1005.16
2018-04-29T00:38:13.878Z,1005.19
2018-04-29T00:39:13.941Z,1005.15
2018-04-29T00:41:06.935Z,1005.12
2018-04-29T00:42:06.986Z,1005.11
2018-04-29T00:43:59.982Z,1005.03
2018-04-29T00:45:00.037Z,1005.05
2018-04-29T00:46:53.031Z,1005.02
2018-04-29T00:47:53.083Z,1004.93
2018-04-29T00:49:46.086Z,1004.87
2018-04-29T00:50:46.130Z,1004.93
2018-04-29T00:52:39.114Z,1004.95
2018-04-29T00:53:39.176Z,1005.01
2018-04-29T00:55:32.197Z,1005.00
2018-04-29T00:56:32.250Z,1004.98
2018-04-29T00:58:25.234Z,1005.01
2018-04-29T00:59:25.296Z,1005.00
2018-04-29T01:01:18.287Z,1005.05
2018-04-29T01:02:18.341Z,1005.05
2018-04-29T01:04:11.331Z,1005.06
2018-04-29T01:05:11.392Z,1005.01
2018-04-29T01:07:04.387Z,1004.92
2018-04-29T01:08:04.438Z,1004.93
2018-04-29T01:09:57.451Z,1004.92
2018-04-29T01:10:57.486Z,1004.96
2018-04-29T01:12:50.471Z,1004.91
2018-04-29T01:13:50.534Z,1004.87
2018-04-29T01:15:43.530Z,1004.95
2018-04-29T01:16:43.582Z,1004.94
2018-04-29T01:18:36.568Z,1004.97
2018-04-29T01:19:36.627Z,1004.92
2018-04-29T01:21:29.618Z,1004.90
2018-04-29T01:22:29.673Z,1004.90
2018-04-29T01:24:22.658Z,1004.90
2018-04-29T01:25:22.719Z,1004.85
2018-04-29T01:27:15.707Z,1004.84
2018-04-29T01:28:15.765Z,1004.85
2018-04-29T01:30:08.770Z,1004.88
2018-04-29T01:31:08.821Z,1004.90
2018-04-29T01:33:01.810Z,1004.95
2018-04-29T01:34:01.878Z,1004.90
2018-04-29T01:35:54.875Z,1005.00
2018-04-29T01:36:54.930Z,1004.99
2018-04-29T01:38:47.916Z,1005.01
2018-04-29T01:39:47.978Z,1005.03
2018-04-29T01:41:40.979Z,1005.05
2018-04-29T01:42:41.025Z,1005.02
2018-04-29T01:44:34.014Z,1004.97
2018-04-29T01:45:34.074Z,1004.96
2018-04-29T01:47:27.068Z,1004.96
2018-04-29T01:48:27.123Z,1004.97
2018-04-29T01:50:20.152Z,1004.97
2018-04-29T01:51:20.169Z,1004.95
2018-04-29T01:53:13.184Z,1004.92
2018-04-29T01:54:13.234Z,1004.91
2018-04-29T01:56:06.258Z,1004.85
2018-04-29T01:57:06.272Z,1004.85
2018-04-29T01:58:59.259Z,1004.82
2018-04-29T01:59:59.319Z,1004.79
2018-04-29T02:01:52.315Z,1004.76
2018-04-29T02:02:52.364Z,1004.76
2018-04-29T02:04:45.347Z,1004.74
2018-04-29T02:05:45.408Z,1004.78
2018-04-29T02:07:38.405Z,1004.73
2018-04-29T02:08:38.464Z,1004.76
2018-04-29T02:10:31.481Z,1004.79
2018-04-29T02:11:31.516Z,1004.78
2018-04-29T02:13:24.509Z,1004.77
2018-04-29T02:14:24.570Z,1004.79
2018-04-29T02:16:17.566Z,1004.79
2018-04-29T02:17:17.616Z,1004.80
2018-04-29T02:19:10.645Z,1004.78
2018-04-29T02:20:10.662Z,1004.80
2018-04-29T02:22:03.657Z,1004.78
2018-04-29T02:23:03.711Z,1004.71
2018-04-29T02:24:56.702Z,1004.73
2018-04-29T02:25:56.759Z,1004.76
2018-04-29T02:27:49.753Z,1004.76
2018-04-29T02:28:49.809Z,1004.76
2018-04-29T02:30:42.800Z,1004.65
2018-04-29T02:31:42.848Z,1004.62
2018-04-29T02:33:35.838Z,1004.51
2018-04-29T02:34:35.897Z,1004.45
2018-04-29T02:36:28.896Z,1004.38
2018-04-29T02:37:28.949Z,1004.41
2018-04-29T02:39:21.932Z,1004.37
2018-04-29T02:40:22.002Z,1004.37
2018-04-29T02:42:14.991Z,1004.40
2018-04-29T02:43:15.045Z,1004.42
2018-04-29T02:45:08.030Z,1004.47
2018-04-29T02:46:08.093Z,1004.48
2018-04-29T02:48:01.080Z,1004.45
2018-04-29T02:49:01.164Z,1004.46
2018-04-29T02:50:54.141Z,1004.44
2018-04-29T02:51:54.180Z,1004.43
2018-04-29T02:53:47.170Z,1004.46
2018-04-29T02:54:47.233Z,1004.43
2018-04-29T02:56:40.225Z,1004.39
2018-04-29T02:57:40.277Z,1004.33
2018-04-29T02:59:33.260Z,1004.25
2018-04-29T03:00:33.320Z,1004.24
2018-04-29T03:02:26.314Z,1004.27
2018-04-29T03:03:26.370Z,1004.25
2018-04-29T03:05:19.351Z,1004.26
2018-04-29T03:06:19.418Z,1004.28
2018-04-29T03:08:12.408Z,1004.25
2018-04-29T03:09:12.453Z,1004.30
2018-04-29T03:11:05.502Z,1004.23
2018-04-29T03:12:05.503Z,1004.26
2018-04-29T03:13:58.486Z,1004.25
2018-04-29T03:14:58.552Z,1004.22
2018-04-29T03:16:51.544Z,1004.20
2018-04-29T03:17:51.597Z,1004.23
2018-04-29T03:19:44.585Z,1004.22
2018-04-29T03:20:44.645Z,1004.21
2018-04-29T03:22:37.631Z,1004.21
2018-04-29T03:23:37.684Z,1004.23
2018-04-29T03:25:31.177Z,1004.18
2018-04-29T03:26:31.235Z,1004.20
2018-04-29T03:28:24.225Z,1004.21
2018-04-29T03:29:24.278Z,1004.20
2018-04-29T03:31:17.280Z,1004.21
2018-04-29T03:32:17.325Z,1004.23
2018-04-29T03:34:10.307Z,1004.21
2018-04-29T03:35:10.368Z,1004.20
2018-04-29T03:37:03.363Z,1004.18
2018-04-29T03:38:03.422Z,1004.17
2018-04-29T03:39:56.404Z,1004.22
2018-04-29T03:40:56.459Z,1004.23
2018-04-29T03:42:49.458Z,1004.21
2018-04-29T03:43:49.505Z,1004.20
2018-04-29T03:45:42.491Z,1004.19
2018-04-29T03:46:42.553Z,1004.17
2018-04-29T03:48:35.539Z,1004.23
2018-04-29T03:49:35.593Z,1004.21
2018-04-29T03:51:28.602Z,1004.23
2018-04-29T03:52:28.639Z,1004.20
2018-04-29T03:54:21.623Z,1004.18
2018-04-29T03:55:21.683Z,1004.22
2018-04-29T03:57:14.681Z,1004.19
2018-04-29T03:58:14.737Z,1004.22
2018-04-29T04:00:07.725Z,1004.19
2018-04-29T04:01:07.783Z,1004.15
2018-04-29T04:03:00.776Z,1004.11
2018-04-29T04:04:00.827Z,1004.14
2018-04-29T04:05:53.825Z,1004.18
2018-04-29T04:06:53.883Z,1004.16
2018-04-29T04:08:46.871Z,1004.27
2018-04-29T04:09:46.965Z,1004.22
2018-04-29T04:11:39.918Z,1004.16
2018-04-29T04:12:39.966Z,1004.16
2018-04-29T04:14:32.949Z,1004.12
2018-04-29T04:15:33.009Z,1004.15
2018-04-29T04:17:26.046Z,1004.11
2018-04-29T04:18:26.053Z,1004.10
2018-04-29T04:20:19.039Z,1004.02
2018-04-29T04:21:19.100Z,1004.02
2018-04-29T04:23:12.095Z,1004.01
2018-04-29T04:24:12.146Z,1003.98
2018-04-29T04:26:05.637Z,1004.04
2018-04-29T04:27:05.695Z,1004.05
2018-04-29T04:28:58.692Z,1004.05
2018-04-29T04:29:58.738Z,1004.09
2018-04-29T04:31:51.744Z,1004.16
2018-04-29T04:32:51.789Z,1004.20
2018-04-29T04:34:44.771Z,1004.16
2018-04-29T04:35:44.833Z,1004.17
2018-04-29T04:37:37.813Z,1004.19
2018-04-29T04:38:37.874Z,1004.19
2018-04-29T04:40:30.857Z,1004.21
2018-04-29T04:41:30.920Z,1004.22
2018-04-29T04:43:23.909Z,1004.28
2018-04-29T04:44:23.963Z,1004.29
2018-04-29T04:46:16.946Z,1004.29
2018-04-29T04:47:17.008Z,1004.32
2018-04-29T04:49:10.008Z,1004.35
2018-04-29T04:50:10.052Z,1004.36
2018-04-29T04:52:03.066Z,1004.38
2018-04-29T04:53:03.096Z,1004.39
2018-04-29T04:54:56.080Z,1004.40
2018-04-29T04:55:56.139Z,1004.35
2018-04-29T04:57:49.140Z,1004.31
2018-04-29T04:58:49.180Z,1004.37
2018-04-29T05:00:42.165Z,1004.38
2018-04-29T05:01:42.224Z,1004.39
2018-04-29T05:03:35.219Z,1004.40
2018-04-29T05:04:35.269Z,1004.39
2018-04-29T05:06:28.250Z,1004.35
2018-04-29T05:07:28.341Z,1004.29
2018-04-29T05:09:21.301Z,1004.12
2018-04-29T05:10:21.355Z,1004.14
2018-04-29T05:12:14.349Z,1004.10
2018-04-29T05:13:14.399Z,1004.09
2018-04-29T05:15:07.383Z,1004.10
2018-04-29T05:16:07.444Z,1004.11
2018-04-29T05:18:00.941Z,1004.15
2018-04-29T05:19:00.994Z,1004.12
2018-04-29T05:20:53.980Z,1004.07
2018-04-29T05:21:54.036Z,1004.06
2018-04-29T05:23:47.030Z,1003.94
2018-04-29T05:24:47.079Z,1003.92
2018-04-29T05:26:40.063Z,1003.93
2018-04-29T05:27:40.124Z,1003.92
2018-04-29T05:29:33.111Z,1003.93
2018-04-29T05:30:33.166Z,1003.93
2018-04-29T05:32:26.179Z,1004.00
2018-04-29T05:33:26.211Z,1004.01
2018-04-29T05:35:19.281Z,1004.02
2018-04-29T05:36:19.257Z,1003.98
2018-04-29T05:38:12.251Z,1004.01
2018-04-29T05:39:12.307Z,1004.01
2018-04-29T05:41:05.339Z,1004.02
2018-04-29T05:42:05.353Z,1004.01
2018-04-29T05:43:58.347Z,1004.06
2018-04-29T05:44:58.398Z,1004.04
2018-04-29T05:46:51.386Z,1004.07
2018-04-29T05:47:51.447Z,1004.09
2018-04-29T05:49:44.446Z,1004.16
2018-04-29T05:50:44.491Z,1004.18
2018-04-29T05:52:37.487Z,1004.19
2018-04-29T05:53:37.534Z,1004.20
2018-04-29T05:55:30.525Z,1004.19
2018-04-29T05:56:30.585Z,1004.16
2018-04-29T05:58:23.589Z,1004.20
2018-04-29T05:59:23.639Z,1004.22
2018-04-29T06:01:16.629Z,1004.29
2018-04-29T06:02:16.689Z,1004.29
2018-04-29T06:04:09.682Z,1004.35
2018-04-29T06:05:09.737Z,1004.34
2018-04-29T06:07:02.725Z,1004.37
2018-04-29T06:08:02.789Z,1004.40
2018-04-29T06:09:55.779Z,1004.41
2018-04-29T06:10:55.833Z,1004.33
2018-04-29T06:12:48.835Z,1004.36
2018-04-29T06:13:48.880Z,1004.37
2018-04-29T06:15:41.868Z,1004.41
2018-04-29T06:16:41.928Z,1004.47
2018-04-29T06:18:35.433Z,1004.53
2018-04-29T06:19:35.484Z,1004.49
2018-04-29T06:21:28.470Z,1004.29
2018-04-29T06:22:28.531Z,1004.28
2018-04-29T06:24:21.529Z,1004.28
2018-04-29T06:25:21.584Z,1004.17
2018-04-29T06:27:14.593Z,1004.19
2018-04-29T06:28:14.644Z,1004.19
2018-04-29T06:30:07.645Z,1004.23
2018-04-29T06:31:07.704Z,1004.25
2018-04-29T06:33:00.702Z,1004.25
2018-04-29T06:34:00.761Z,1004.26
2018-04-29T06:35:53.756Z,1004.24
2018-04-29T06:36:53.827Z,1004.30
2018-04-29T06:38:46.865Z,1004.31
2018-04-29T06:39:46.882Z,1004.26
2018-04-29T06:41:39.871Z,1004.22
2018-04-29T06:42:39.937Z,1004.33
2018-04-29T06:44:32.941Z,1004.33
2018-04-29T06:45:33.000Z,1004.35
2018-04-29T06:47:25.994Z,1004.40
2018-04-29T06:48:26.064Z,1004.26
2018-04-29T06:50:19.064Z,1004.09
2018-04-29T06:51:19.123Z,1004.10
2018-04-29T06:53:12.136Z,1003.95
2018-04-29T06:54:12.191Z,1003.85
2018-04-29T06:56:05.195Z,1003.83
2018-04-29T06:57:05.263Z,1003.81
2018-04-29T06:58:58.268Z,1003.80
2018-04-29T06:59:58.326Z,1003.87
2018-04-29T07:01:51.333Z,1004.10
2018-04-29T07:02:51.395Z,1004.14
2018-04-29T07:04:44.400Z,1003.92
2018-04-29T07:05:44.466Z,1003.71
2018-04-29T07:07:37.462Z,1004.03
2018-04-29T07:08:37.533Z,1004.04
2018-04-29T07:10:30.537Z,1004.19
2018-04-29T07:11:30.602Z,1004.36
2018-04-29T07:13:23.608Z,1004.28
2018-04-29T07:14:23.671Z,1003.86
2018-04-29T07:16:16.678Z,1003.73
2018-04-29T07:17:16.750Z,1003.79
2018-04-29T07:19:09.760Z,1003.82
2018-04-29T07:20:09.823Z,1003.75
2018-04-29T07:22:02.833Z,1003.76
2018-04-29T07:23:02.901Z,1003.66
2018-04-29T07:24:55.912Z,1003.70
2018-04-29T07:25:55.976Z,1003.70
2018-04-29T07:27:48.987Z,1003.67
2018-04-29T07:28:49.045Z,1003.65
2018-04-29T07:30:42.049Z,1003.62
2018-04-29T07:31:42.146Z,1003.55
2018-04-29T07:33:35.137Z,1003.48
2018-04-29T07:34:35.186Z,1003.53
2018-04-29T07:36:28.183Z,1003.74
2018-04-29T07:37:28.254Z,1003.61
2018-04-29T07:39:21.252Z,1003.60
2018-04-29T07:40:21.313Z,1003.67
2018-04-29T07:42:14.312Z,1003.70
2018-04-29T07:43:14.378Z,1003.70
2018-04-29T07:45:07.382Z,1003.75
2018-04-29T07:46:07.441Z,1003.73
2018-04-29T07:48:00.441Z,1003.78
2018-04-29T07:49:00.509Z,1003.78
2018-04-29T07:50:53.501Z,1003.83
2018-04-29T07:51:53.558Z,1003.83
2018-04-29T07:53:46.566Z,1003.95
2018-04-29T07:54:46.621Z,1003.98
2018-04-29T07:56:39.619Z,1004.07
2018-04-29T07:57:39.687Z,1004.10
2018-04-29T07:59:32.709Z,1004.04
2018-04-29T08:00:32.844Z,1004.02
2018-04-29T08:02:25.761Z,1004.01
2018-04-29T08:03:25.827Z,1003.98
2018-04-29T08:05:18.825Z,1003.98
2018-04-29T08:06:18.880Z,1004.02
2018-04-29T08:08:11.880Z,1003.97
2018-04-29T08:09:11.945Z,1004.00
2018-04-29T08:11:04.945Z,1003.90
2018-04-29T08:12:05.000Z,1003.92
2018-04-29T08:13:58.028Z,1003.90
2018-04-29T08:14:58.187Z,1003.92
2018-04-29T08:16:51.058Z,1003.94
2018-04-29T08:17:51.121Z,1003.92
2018-04-29T08:19:44.127Z,1003.87
2018-04-29T08:20:44.184Z,1003.84
2018-04-29T08:22:37.187Z,1003.88
2018-04-29T08:23:37.238Z,1003.88
2018-04-29T08:25:30.249Z,1003.83
2018-04-29T08:26:30.311Z,1003.84
2018-04-29T08:28:23.305Z,1003.80
2018-04-29T08:29:23.366Z,1003.73
2018-04-29T08:31:16.365Z,1003.64
2018-04-29T08:32:16.419Z,1003.62
2018-04-29T08:34:09.420Z,1003.59
2018-04-29T08:35:09.536Z,1003.64
2018-04-29T08:37:02.516Z,1003.65
2018-04-29T08:38:02.545Z,1003.60
2018-04-29T08:39:55.561Z,1003.60
2018-04-29T08:40:55.584Z,1003.60
2018-04-29T08:42:48.629Z,1003.57
2018-04-29T08:43:48.640Z,1003.58
2018-04-29T08:45:41.640Z,1003.58
2018-04-29T08:46:41.706Z,1003.66
2018-04-29T08:48:34.759Z,1003.65
2018-04-29T08:49:34.754Z,1003.67
2018-04-29T08:51:27.752Z,1003.66
2018-04-29T08:52:27.816Z,1003.64
2018-04-29T08:54:20.817Z,1003.67
2018-04-29T08:55:20.869Z,1003.64
2018-04-29T08:57:13.869Z,1003.54
2018-04-29T08:58:13.933Z,1003.51
2018-04-29T09:00:06.930Z,1003.47
2018-04-29T09:01:06.988Z,1003.41
2018-04-29T09:02:59.980Z,1003.50
2018-04-29T09:04:00.078Z,1003.46
2018-04-29T09:05:54.064Z,1003.40
2018-04-29T09:06:53.123Z,1003.44
2018-04-29T09:08:46.123Z,1003.44
2018-04-29T09:09:46.189Z,1003.43
2018-04-29T09:11:39.191Z,1003.45
2018-04-29T09:12:39.247Z,1003.41
2018-04-29T09:14:32.257Z,1003.43
2018-04-29T09:15:32.308Z,1003.37
2018-04-29T09:17:25.305Z,1003.38
2018-04-29T09:18:25.383Z,1003.34
2018-04-29T09:20:18.366Z,1003.28
2018-04-29T09:21:18.423Z,1003.33
2018-04-29T09:23:11.444Z,1003.31
2018-04-29T09:24:11.479Z,1003.32
2018-04-29T09:26:04.480Z,1003.43
2018-04-29T09:27:04.536Z,1003.48
2018-04-29T09:28:57.529Z,1003.50
2018-04-29T09:29:57.592Z,1003.54
2018-04-29T09:31:50.612Z,1003.51
2018-04-29T09:32:50.658Z,1003.55
2018-04-29T09:34:43.687Z,1003.53
2018-04-29T09:35:43.794Z,1003.59
2018-04-29T09:37:36.764Z,1003.60
2018-04-29T09:38:36.767Z,1003.64
2018-04-29T09:40:29.763Z,1003.63
2018-04-29T09:41:29.819Z,1003.64
2018-04-29T09:43:22.881Z,1003.69
2018-04-29T09:44:22.890Z,1003.61
2018-04-29T09:46:15.871Z,1003.27
2018-04-29T09:47:15.928Z,1003.05
2018-04-29T09:49:08.919Z,1002.96
2018-04-29T09:50:08.980Z,1003.14
2018-04-29T09:52:01.988Z,1003.43
2018-04-29T09:53:02.041Z,1003.45
2018-04-29T09:54:55.045Z,1003.33
2018-04-29T09:55:55.089Z,1003.25
2018-04-29T09:57:48.079Z,1003.25
2018-04-29T09:58:48.145Z,1003.22
2018-04-29T10:00:41.142Z,1003.27
2018-04-29T10:01:41.199Z,1003.28
2018-04-29T10:03:34.197Z,1003.25
2018-04-29T10:04:34.257Z,1003.24
2018-04-29T10:06:27.251Z,1003.22
2018-04-29T10:07:27.314Z,1003.18
2018-04-29T10:09:20.298Z,1003.30
2018-04-29T10:10:20.363Z,1003.30
2018-04-29T10:12:13.362Z,1003.18
2018-04-29T10:13:13.421Z,1003.14
2018-04-29T10:15:06.422Z,1003.10
2018-04-29T10:16:06.479Z,1003.05
2018-04-29T10:17:59.512Z,1003.08
2018-04-29T10:18:59.536Z,1003.06
2018-04-29T10:20:52.535Z,1003.06
2018-04-29T10:21:52.594Z,1003.06
2018-04-29T10:23:45.585Z,1003.04
2018-04-29T10:24:45.649Z,1003.04
2018-04-29T10:26:38.652Z,1003.03
2018-04-29T10:27:38.712Z,1003.01
2018-04-29T10:29:31.706Z,1003.00
2018-04-29T10:30:31.777Z,1002.97
2018-04-29T10:32:24.878Z,1002.97
2018-04-29T10:33:24.830Z,1002.96
2018-04-29T10:35:17.833Z,1002.98
2018-04-29T10:36:17.888Z,1002.95
2018-04-29T10:38:10.892Z,1002.93
2018-04-29T10:39:10.949Z,1002.85
2018-04-29T10:41:04.041Z,1002.88
2018-04-29T10:42:04.011Z,1002.82
2018-04-29T10:43:57.018Z,1002.79
2018-04-29T10:44:57.081Z,1002.85
2018-04-29T10:46:50.083Z,1002.78
2018-04-29T10:47:50.158Z,1002.78
2018-04-29T10:49:43.140Z,1002.74
2018-04-29T10:50:43.206Z,1002.70
2018-04-29T10:52:36.280Z,1002.60
2018-04-29T10:53:36.290Z,1002.64
2018-04-29T10:55:29.278Z,1002.54
2018-04-29T10:56:29.340Z,1002.53
2018-04-29T10:58:22.346Z,1002.45
2018-04-29T10:59:22.409Z,1002.35
2018-04-29T11:01:15.417Z,1002.26
2018-04-29T11:02:15.476Z,1002.22
2018-04-29T11:04:08.469Z,1002.18
2018-04-29T11:05:08.536Z,1002.15
2018-04-29T11:07:01.547Z,1002.08
2018-04-29T11:08:01.600Z,1002.07
2018-04-29T11:09:54.604Z,1002.12
2018-04-29T11:10:54.672Z,1002.10
2018-04-29T11:12:47.664Z,1002.09
2018-04-29T11:13:47.743Z,1002.15
2018-04-29T11:15:40.734Z,1002.15
2018-04-29T11:16:40.796Z,1002.16
2018-04-29T11:18:33.797Z,1002.12
2018-04-29T11:19:33.853Z,1002.12
2018-04-29T11:21:26.855Z,1002.18
2018-04-29T11:22:27.004Z,1002.17
2018-04-29T11:24:19.911Z,1002.05
2018-04-29T11:25:19.993Z,1002.00
2018-04-29T11:27:12.992Z,1001.88
2018-04-29T11:28:13.054Z,1001.80
2018-04-29T11:30:06.077Z,1001.81
2018-04-29T11:31:06.126Z,1001.81
2018-04-29T11:32:59.127Z,1001.81
2018-04-29T11:33:59.189Z,1001.75
2018-04-29T11:35:52.195Z,1001.65
2018-04-29T11:36:52.248Z,1001.61
2018-04-29T11:38:45.247Z,1001.58
2018-04-29T11:39:45.429Z,1001.58
2018-04-29T11:41:38.319Z,1001.53
2018-04-29T11:42:38.376Z,1001.48
2018-04-29T11:44:31.373Z,1001.40
2018-04-29T11:45:31.442Z,1001.42
2018-04-29T11:47:24.452Z,1001.34
2018-04-29T11:48:24.505Z,1001.41
2018-04-29T11:50:17.507Z,1001.38
2018-04-29T11:51:17.566Z,1001.29
2018-04-29T11:53:10.570Z,1001.26
2018-04-29T11:54:10.630Z,1001.25
2018-04-29T11:56:03.633Z,1001.36
2018-04-29T11:57:03.690Z,1001.33
2018-04-29T11:58:56.698Z,1001.27
2018-04-29T11:59:56.766Z,1001.29
2018-04-29T12:01:49.802Z,1001.32
2018-04-29T12:02:49.825Z,1001.30
2018-04-29T12:04:42.836Z,1001.28
2018-04-29T12:05:42.902Z,1001.26
2018-04-29T12:07:35.905Z,1001.23
2018-04-29T12:08:35.961Z,1001.22
2018-04-29T12:10:28.975Z,1001.22
2018-04-29T12:11:29.063Z,1001.24
2018-04-29T12:13:22.047Z,1001.20
2018-04-29T12:14:22.106Z,1001.13
2018-04-29T12:16:15.111Z,1001.03
2018-04-29T12:17:15.171Z,1000.98
2018-04-29T12:19:08.176Z,1001.01
2018-04-29T12:20:08.244Z,1000.98
2018-04-29T12:22:01.244Z,1000.98
2018-04-29T12:23:01.306Z,1001.01
2018-04-29T12:24:54.307Z,1000.98
2018-04-29T12:25:54.370Z,1000.97
2018-04-29T12:27:47.378Z,1001.01
2018-04-29T12:28:47.439Z,1000.98
2018-04-29T12:30:40.439Z,1001.01
2018-04-29T12:31:40.509Z,1000.93
2018-04-29T12:33:33.567Z,1000.93
2018-04-29T12:34:33.568Z,1000.84
2018-04-29T12:36:26.568Z,1000.76
2018-04-29T12:37:26.629Z,1000.73
2018-04-29T12:39:19.631Z,1000.72
2018-04-29T12:40:19.691Z,1000.69
2018-04-29T12:42:12.695Z,1000.64
2018-04-29T12:43:12.752Z,1000.70
2018-04-29T12:45:05.765Z,1000.71
2018-04-29T12:46:05.812Z,1000.76
2018-04-29T12:47:58.827Z,1000.79
2018-04-29T12:48:58.888Z,1000.83
2018-04-29T12:50:51.898Z,1000.81
2018-04-29T12:51:52.069Z,1000.87
2018-04-29T12:53:44.975Z,1000.82
2018-04-29T12:54:45.038Z,1000.76
2018-04-29T12:56:38.033Z,1000.63
2018-04-29T12:57:38.101Z,1000.58
2018-04-29T12:59:31.115Z,1000.56
2018-04-29T13:00:31.164Z,1000.56
2018-04-29T13:02:24.167Z,1000.53
2018-04-29T13:03:24.230Z,1000.54
2018-04-29T13:05:17.226Z,1000.49
2018-04-29T13:06:17.289Z,1000.46
2018-04-29T13:08:10.308Z,1000.49
2018-04-29T13:09:10.351Z,1000.42
2018-04-29T13:11:03.351Z,1000.42
2018-04-29T13:12:03.405Z,1000.41
2018-04-29T13:13:56.415Z,1000.42
2018-04-29T13:14:56.483Z,1000.37
2018-04-29T13:16:49.481Z,1000.31
2018-04-29T13:17:49.538Z,1000.26
2018-04-29T13:19:42.541Z,1000.34
2018-04-29T13:20:42.601Z,1000.29
2018-04-29T13:22:35.605Z,1000.30
2018-04-29T13:23:35.665Z,1000.35
2018-04-29T13:25:28.664Z,1000.23
2018-04-29T13:26:28.729Z,1000.16
2018-04-29T13:28:21.732Z,1000.08
2018-04-29T13:29:21.835Z,1000.07
2018-04-29T13:31:14.808Z,1000.08
2018-04-29T13:32:14.868Z,1000.02
2018-04-29T13:34:07.884Z,1000.01
2018-04-29T13:35:07.945Z,999.96
2018-04-29T13:37:00.935Z,999.91
2018-04-29T13:38:01.010Z,999.91
2018-04-29T13:39:53.998Z,999.83
2018-04-29T13:40:54.063Z,999.83
2018-04-29T13:42:47.063Z,999.74
2018-04-29T13:43:47.129Z,999.79
2018-04-29T13:45:40.119Z,999.81
2018-04-29T13:46:40.183Z,999.82
2018-04-29T13:48:33.189Z,999.76
2018-04-29T13:49:33.248Z,999.77
2018-04-29T13:51:26.240Z,999.72
2018-04-29T13:52:26.308Z,999.71
2018-04-29T13:54:19.310Z,999.67
2018-04-29T13:55:19.368Z,999.68
2018-04-29T13:57:12.364Z,999.64
2018-04-29T13:58:12.433Z,999.70
2018-04-29T14:00:05.433Z,999.62
2018-04-29T14:01:05.497Z,999.58
2018-04-29T14:02:58.503Z,999.53
2018-04-29T14:03:58.556Z,999.58
2018-04-29T14:05:51.567Z,999.51
2018-04-29T14:06:51.627Z,999.52
2018-04-29T14:08:44.634Z,999.47
2018-04-29T14:09:44.688Z,999.41
2018-04-29T14:11:37.686Z,999.45
2018-04-29T14:12:37.821Z,999.43
2018-04-29T14:14:30.754Z,999.31
2018-04-29T14:15:30.807Z,999.31
2018-04-29T14:17:23.812Z,999.31
2018-04-29T14:18:23.876Z,999.31
2018-04-29T14:20:16.878Z,999.31
2018-04-29T14:21:16.940Z,999.26
2018-04-29T14:23:09.939Z,999.23
2018-04-29T14:24:10.001Z,999.17
2018-04-29T14:26:03.004Z,999.09
2018-04-29T14:27:03.083Z,999.01
2018-04-29T14:28:56.071Z,998.98
2018-04-29T14:29:56.134Z,999.04
2018-04-29T14:31:49.137Z,999.08
2018-04-29T14:32:49.197Z,999.06
2018-04-29T14:34:42.200Z,999.08
2018-04-29T14:35:42.254Z,999.09
2018-04-29T14:37:35.254Z,999.12
2018-04-29T14:38:35.519Z,999.10
2018-04-29T14:40:28.315Z,999.06
2018-04-29T14:41:28.377Z,999.01
2018-04-29T14:43:21.552Z,999.05
2018-04-29T14:44:21.440Z,999.04
2018-04-29T14:46:14.447Z,998.98
2018-04-29T14:47:14.515Z,999.02
2018-04-29T14:49:07.521Z,998.98
2018-04-29T14:50:07.578Z,999.00
2018-04-29T14:52:00.580Z,999.01
2018-04-29T14:53:00.686Z,998.95
2018-04-29T14:54:53.696Z,998.91
2018-04-29T14:55:53.723Z,998.93
2018-04-29T14:57:46.716Z,998.91
2018-04-29T14:58:46.782Z,998.91
2018-04-29T15:00:39.943Z,998.91
2018-04-29T15:01:39.952Z,998.87
2018-04-29T15:03:32.868Z,998.87
2018-04-29T15:04:32.927Z,998.84
2018-04-29T15:06:25.928Z,998.84
2018-04-29T15:07:25.987Z,998.85
2018-04-29T15:09:18.993Z,998.88
2018-04-29T15:10:19.051Z,998.75
2018-04-29T15:12:12.052Z,998.75
2018-04-29T15:13:12.154Z,998.76
2018-04-29T15:15:05.129Z,998.67
2018-04-29T15:16:05.377Z,998.64
2018-04-29T15:17:58.181Z,998.59
2018-04-29T15:18:58.241Z,998.61
2018-04-29T15:20:51.248Z,998.62
2018-04-29T15:21:51.312Z,998.66
2018-04-29T15:23:44.323Z,998.64
2018-04-29T15:24:44.367Z,998.67
2018-04-29T15:26:37.369Z,998.68
2018-04-29T15:27:37.438Z,998.68
2018-04-29T15:29:30.443Z,998.69
2018-04-29T15:30:30.507Z,998.71
2018-04-29T15:32:23.510Z,998.65
2018-04-29T15:33:23.677Z,998.59
2018-04-29T15:35:16.575Z,998.53
2018-04-29T15:36:16.634Z,998.51
2018-04-29T15:38:09.647Z,998.53
2018-04-29T15:39:09.710Z,998.53
2018-04-29T15:41:02.717Z,998.59
2018-04-29T15:42:02.770Z,998.58
2018-04-29T15:43:55.770Z,998.57
2018-04-29T15:44:55.832Z,998.56
2018-04-29T15:46:48.830Z,998.64
2018-04-29T15:47:48.896Z,998.62
2018-04-29T15:49:41.899Z,998.57
2018-04-29T15:50:41.958Z,998.57
2018-04-29T15:52:34.961Z,998.56
2018-04-29T15:53:35.022Z,998.55
2018-04-29T15:55:28.024Z,998.54
2018-04-29T15:56:28.085Z,998.56
2018-04-29T15:58:21.080Z,998.48
2018-04-29T15:59:21.146Z,998.49
2018-04-29T16:01:14.147Z,998.48
2018-04-29T16:02:14.208Z,998.46
2018-04-29T16:04:07.210Z,998.41
2018-04-29T16:05:07.267Z,998.38
2018-04-29T16:07:00.268Z,998.38
2018-04-29T16:08:00.334Z,998.34
2018-04-29T16:09:53.335Z,998.32
2018-04-29T16:10:53.395Z,998.28
2018-04-29T16:12:46.400Z,998.29
2018-04-29T16:13:46.470Z,998.30
2018-04-29T16:15:39.473Z,998.33
2018-04-29T16:16:39.536Z,998.34
2018-04-29T16:18:32.530Z,998.18
2018-04-29T16:19:32.595Z,998.15
2018-04-29T16:21:25.606Z,998.05
2018-04-29T16:22:25.667Z,998.01
2018-04-29T16:24:18.669Z,997.95
2018-04-29T16:25:18.756Z,997.91
2018-04-29T16:27:11.732Z,997.89
2018-04-29T16:28:11.792Z,997.81
2018-04-29T16:30:04.795Z,997.80
2018-04-29T16:31:04.854Z,997.81
2018-04-29T16:32:57.849Z,997.84
2018-04-29T16:33:57.934Z,997.85
2018-04-29T16:35:50.934Z,997.82
2018-04-29T16:36:50.976Z,997.81
2018-04-29T16:38:43.971Z,997.78
2018-04-29T16:39:44.035Z,997.75
2018-04-29T16:41:37.039Z,997.79
2018-04-29T16:42:37.096Z,997.78
2018-04-29T16:44:30.096Z,997.71
2018-04-29T16:45:30.155Z,997.74
2018-04-29T16:47:23.152Z,997.70
2018-04-29T16:48:23.216Z,997.68
2018-04-29T16:50:16.720Z,997.63
2018-04-29T16:51:16.776Z,997.64
2018-04-29T16:53:09.772Z,997.58
2018-04-29T16:54:09.889Z,997.60
2018-04-29T16:56:02.863Z,997.58
2018-04-29T16:57:02.906Z,997.55
2018-04-29T16:58:55.896Z,997.56
2018-04-29T16:59:55.963Z,997.55
2018-04-29T17:01:48.963Z,997.59
2018-04-29T17:02:49.015Z,997.55
2018-04-29T17:04:42.012Z,997.50
2018-04-29T17:05:42.226Z,997.50
2018-04-29T17:07:35.071Z,997.44
2018-04-29T17:08:35.134Z,997.43
2018-04-29T17:10:28.143Z,997.38
2018-04-29T17:11:28.203Z,997.41
2018-04-29T17:13:21.193Z,997.37
2018-04-29T17:14:21.264Z,997.41
2018-04-29T17:16:14.280Z,997.37
2018-04-29T17:17:14.319Z,997.43
2018-04-29T17:19:07.311Z,997.45
2018-04-29T17:20:07.380Z,997.43
2018-04-29T17:22:00.380Z,997.42
2018-04-29T17:23:00.514Z,997.43
2018-04-29T17:24:53.439Z,997.43
2018-04-29T17:25:53.501Z,997.41
2018-04-29T17:27:46.502Z,997.37
2018-04-29T17:28:46.564Z,997.37
2018-04-29T17:30:39.568Z,997.40
2018-04-29T17:31:39.629Z,997.49
2018-04-29T17:33:32.625Z,997.48